createdAt,value
2018-09-27T00:02:28.003Z,9.45
2018-09-27T00:04:57.153Z,9.41
2018-09-27T00:07:26.692Z,9.48
2018-09-27T00:09:55.859Z,9.41
2018-09-27T00:12:24.996Z,9.48
2018-09-27T00:14:54.344Z,9.41
2018-09-27T00:17:23.483Z,9.46
2018-09-27T00:19:52.666Z,9.52
2018-09-27T00:22:22.211Z,9.59
2018-09-27T00:24:51.346Z,9.73
2018-09-27T00:27:20.457Z,9.69
2018-09-27T00:29:50.059Z,9.81
2018-09-27T00:32:19.212Z,9.96
2018-09-27T00:34:48.337Z,10.20
2018-09-27T00:37:17.742Z,10.31
2018-09-27T00:39:46.916Z,10.38
2018-09-27T00:42:16.086Z,10.36
2018-09-27T00:44:45.553Z,10.35
2018-09-27T00:47:14.706Z,10.33
2018-09-27T00:49:43.834Z,10.31
2018-09-27T00:52:12.941Z,10.35
2018-09-27T00:54:42.001Z,10.41
2018-09-27T00:57:10.973Z,10.41
2018-09-27T00:59:40.238Z,10.44
2018-09-27T01:02:09.187Z,10.42
2018-09-27T01:04:38.159Z,10.41
2018-09-27T01:07:07.535Z,10.37
2018-09-27T01:09:36.544Z,10.39
2018-09-27T01:12:05.540Z,10.38
2018-09-27T01:14:34.830Z,10.38
2018-09-27T01:17:03.795Z,10.44
2018-09-27T01:19:32.890Z,10.51
2018-09-27T01:22:02.007Z,10.57
2018-09-27T01:24:30.941Z,10.62
2018-09-27T01:26:59.933Z,10.58
2018-09-27T01:29:29.035Z,10.43
2018-09-27T01:31:57.992Z,10.31
2018-09-27T01:34:26.993Z,10.36
2018-09-27T01:36:56.336Z,10.29
2018-09-27T01:39:25.272Z,10.35
2018-09-27T01:41:54.251Z,10.32
2018-09-27T01:44:23.621Z,10.35
2018-09-27T01:46:52.556Z,10.23
2018-09-27T01:49:21.528Z,10.17
2018-09-27T01:51:50.609Z,10.14
2018-09-27T01:54:19.624Z,10.13
2018-09-27T01:56:48.587Z,10.08
2018-09-27T01:59:17.856Z,10.14
2018-09-27T02:01:46.901Z,10.18
2018-09-27T02:04:15.918Z,10.20
2018-09-27T02:06:45.196Z,10.13
2018-09-27T02:09:14.167Z,10.12
2018-09-27T02:11:43.132Z,10.04
2018-09-27T02:14:12.255Z,9.95
2018-09-27T02:16:41.244Z,9.95
2018-09-27T02:19:10.197Z,9.95
2018-09-27T02:21:39.494Z,9.91
2018-09-27T02:24:08.468Z,9.88
2018-09-27T02:26:37.415Z,9.77
2018-09-27T02:29:06.722Z,9.34
2018-09-27T02:31:35.662Z,9.52
2018-09-27T02:34:04.608Z,9.48
2018-09-27T02:36:33.812Z,9.73
2018-09-27T02:39:02.822Z,9.57
2018-09-27T02:41:31.881Z,9.58
2018-09-27T02:44:01.106Z,9.48
2018-09-27T02:46:30.068Z,9.39
2018-09-27T02:48:59.014Z,9.40
2018-09-27T02:51:28.123Z,9.48
2018-09-27T02:53:57.054Z,9.53
2018-09-27T02:56:26.124Z,9.57
2018-09-27T02:58:55.263Z,9.66
2018-09-27T03:01:24.242Z,9.61
2018-09-27T03:03:53.336Z,9.67
2018-09-27T03:06:22.339Z,9.54
2018-09-27T03:08:51.302Z,9.60
2018-09-27T03:14:13.817Z,9.64
2018-09-27T03:16:42.756Z,9.53
2018-09-27T03:19:11.708Z,9.04
2018-09-27T03:21:40.856Z,9.11
2018-09-27T03:24:09.810Z,9.30
2018-09-27T03:26:38.759Z,9.32
2018-09-27T03:29:08.036Z,9.42
2018-09-27T03:31:37.020Z,9.40
2018-09-27T03:34:06.008Z,9.65
2018-09-27T03:36:35.289Z,9.65
2018-09-27T03:39:05.078Z,9.74
2018-09-27T03:41:34.075Z,9.60
2018-09-27T03:44:03.207Z,9.43
2018-09-27T03:46:32.186Z,9.54
2018-09-27T03:49:01.140Z,9.25
2018-09-27T03:51:30.406Z,10.07
2018-09-27T03:53:59.332Z,9.40
2018-09-27T03:56:30.276Z,9.18
2018-09-27T03:59:01.528Z,9.12
2018-09-27T04:01:30.482Z,9.13
2018-09-27T04:03:59.432Z,8.65
2018-09-27T04:06:28.696Z,8.69
2018-09-27T04:08:57.650Z,8.78
2018-09-27T04:11:26.639Z,8.83
2018-09-27T04:13:55.766Z,8.60
2018-09-27T04:16:24.847Z,8.47
2018-09-27T04:18:53.820Z,8.43
2018-09-27T04:21:22.957Z,8.61
2018-09-27T04:23:51.858Z,8.52
2018-09-27T04:26:20.783Z,8.34
2018-09-27T04:28:50.095Z,8.40
2018-09-27T04:31:19.037Z,8.05
2018-09-27T04:33:48.006Z,8.16
2018-09-27T04:36:17.103Z,7.93
2018-09-27T04:38:46.042Z,7.73
2018-09-27T04:41:14.990Z,7.65
2018-09-27T04:43:44.078Z,7.55
2018-09-27T04:46:13.056Z,7.55
2018-09-27T04:48:41.982Z,7.54
2018-09-27T04:51:11.246Z,7.64
2018-09-27T04:53:40.243Z,7.37
2018-09-27T04:56:09.188Z,7.46
2018-09-27T04:58:38.311Z,7.68
2018-09-27T05:01:07.327Z,7.73
2018-09-27T05:03:36.358Z,7.68
2018-09-27T05:06:05.681Z,7.69
2018-09-27T05:08:34.655Z,7.86
2018-09-27T05:11:03.610Z,7.84
2018-09-27T05:13:32.698Z,7.65
2018-09-27T05:16:01.671Z,7.61
2018-09-27T05:18:30.664Z,7.68
2018-09-27T05:21:00.903Z,7.77
2018-09-27T05:23:30.754Z,8.12
2018-09-27T05:26:00.546Z,8.19
2018-09-27T05:28:29.737Z,8.32
2018-09-27T05:30:59.098Z,8.07
2018-09-27T05:33:28.888Z,8.19
2018-09-27T05:35:58.482Z,8.25
2018-09-27T05:38:27.543Z,8.62
2018-09-27T05:40:56.584Z,8.22
2018-09-27T05:43:25.879Z,8.21
2018-09-27T05:45:54.989Z,8.07
2018-09-27T05:48:24.014Z,8.52
2018-09-27T05:50:53.330Z,8.33
2018-09-27T05:53:22.310Z,8.58
2018-09-27T05:55:51.426Z,8.50
2018-09-27T05:58:20.774Z,8.51
2018-09-27T06:00:49.817Z,8.55
2018-09-27T06:03:18.929Z,8.98
2018-09-27T06:05:48.113Z,9.09
2018-09-27T06:08:17.122Z,9.10
2018-09-27T06:10:46.123Z,9.52
2018-09-27T06:13:15.418Z,9.67
2018-09-27T06:15:44.372Z,9.60
2018-09-27T06:18:13.342Z,10.40
2018-09-27T06:20:42.728Z,10.65
2018-09-27T06:23:11.680Z,10.45
2018-09-27T06:25:40.634Z,10.23
2018-09-27T06:28:09.906Z,10.20
2018-09-27T06:30:38.859Z,10.51
2018-09-27T06:33:07.834Z,10.51
2018-09-27T06:35:37.002Z,10.21
2018-09-27T06:38:05.963Z,10.22
2018-09-27T06:40:34.913Z,10.86
2018-09-27T06:43:04.025Z,10.80
2018-09-27T06:45:32.992Z,10.84
2018-09-27T06:48:01.994Z,10.67
2018-09-27T06:50:31.147Z,10.76
2018-09-27T06:53:00.092Z,10.85
2018-09-27T06:55:29.195Z,11.11
2018-09-27T06:57:58.170Z,11.44
2018-09-27T07:00:27.136Z,11.36
2018-09-27T07:02:56.114Z,11.57
2018-09-27T07:05:25.493Z,11.62
2018-09-27T07:07:54.494Z,11.94
2018-09-27T07:10:23.452Z,12.08
2018-09-27T07:12:52.594Z,12.15
2018-09-27T07:15:21.557Z,12.47
2018-09-27T07:17:50.502Z,12.99
2018-09-27T07:20:19.840Z,13.34
2018-09-27T07:22:48.823Z,13.05
2018-09-27T07:25:17.872Z,13.13
2018-09-27T07:27:46.907Z,13.28
2018-09-27T07:30:15.908Z,13.36
2018-09-27T07:32:44.926Z,13.57
2018-09-27T07:35:14.214Z,13.43
2018-09-27T07:37:43.167Z,13.59
2018-09-27T07:40:12.153Z,13.58
2018-09-27T07:42:41.367Z,13.52
2018-09-27T07:45:10.306Z,14.05
2018-09-27T07:47:39.289Z,14.34
2018-09-27T07:50:08.576Z,14.01
2018-09-27T07:52:37.541Z,13.81
2018-09-27T07:55:06.670Z,14.22
2018-09-27T07:57:35.840Z,14.69
2018-09-27T08:00:04.878Z,14.22
2018-09-27T08:02:33.916Z,13.91
2018-09-27T08:05:03.252Z,14.22
2018-09-27T08:07:32.193Z,15.10
2018-09-27T08:10:01.176Z,15.29
2018-09-27T08:12:30.447Z,14.72
2018-09-27T08:14:59.397Z,14.87
2018-09-27T08:17:28.421Z,15.10
2018-09-27T08:19:57.752Z,15.22
2018-09-27T08:22:26.766Z,15.33
2018-09-27T08:24:55.727Z,15.60
2018-09-27T08:27:24.851Z,15.33
2018-09-27T08:29:53.816Z,15.59
2018-09-27T08:32:22.819Z,15.73
2018-09-27T08:34:51.916Z,16.17
2018-09-27T08:37:20.899Z,16.03
2018-09-27T08:39:49.884Z,15.97
2018-09-27T08:42:19.211Z,15.54
2018-09-27T08:44:48.375Z,15.28
2018-09-27T08:47:17.340Z,16.09
2018-09-27T08:49:46.708Z,15.96
2018-09-27T08:52:15.773Z,16.26
2018-09-27T08:54:44.813Z,16.32
2018-09-27T08:57:13.908Z,16.21
2018-09-27T08:59:43.014Z,15.88
2018-09-27T09:02:12.113Z,16.30
2018-09-27T09:04:41.505Z,16.37
2018-09-27T09:07:10.561Z,16.32
2018-09-27T09:09:39.683Z,16.34
2018-09-27T09:12:09.196Z,16.62
2018-09-27T09:14:38.264Z,16.93
2018-09-27T09:17:07.463Z,17.01
2018-09-27T09:19:36.921Z,17.46
2018-09-27T09:22:06.043Z,17.32
2018-09-27T09:24:35.188Z,17.23
2018-09-27T09:27:04.404Z,17.24
2018-09-27T09:29:33.589Z,18.06
2018-09-27T09:32:02.591Z,17.45
2018-09-27T09:34:31.971Z,17.80
2018-09-27T09:37:01.015Z,17.55
2018-09-27T09:39:30.063Z,17.66
2018-09-27T09:41:59.264Z,17.85
2018-09-27T09:44:28.312Z,17.93
2018-09-27T09:46:57.538Z,17.42
2018-09-27T09:49:26.781Z,17.60
2018-09-27T09:51:56.434Z,17.56
2018-09-27T09:54:25.498Z,17.71
2018-09-27T09:56:54.983Z,17.66
2018-09-27T09:59:24.073Z,17.99
2018-09-27T10:01:53.156Z,17.84
2018-09-27T10:04:22.526Z,18.62
2018-09-27T10:06:51.574Z,18.30
2018-09-27T10:09:20.625Z,18.15
2018-09-27T10:11:49.724Z,18.19
2018-09-27T10:14:18.891Z,18.15
2018-09-27T10:16:47.957Z,18.08
2018-09-27T10:19:17.060Z,18.24
2018-09-27T10:21:46.169Z,18.46
2018-09-27T10:24:15.540Z,18.26
2018-09-27T10:26:44.687Z,18.60
2018-09-27T10:29:13.781Z,18.95
2018-09-27T10:31:42.817Z,18.78
2018-09-27T10:34:12.224Z,18.06
2018-09-27T10:36:41.278Z,18.59
2018-09-27T10:39:12.106Z,19.11
2018-09-27T10:41:42.058Z,18.94
2018-09-27T10:44:11.127Z,18.70
2018-09-27T10:46:40.239Z,19.52
2018-09-27T10:49:09.654Z,19.60
2018-09-27T10:51:38.791Z,19.62
2018-09-27T10:54:07.931Z,19.39
2018-09-27T10:56:37.159Z,19.51
2018-09-27T10:59:06.448Z,19.32
2018-09-27T11:01:35.517Z,19.21
2018-09-27T11:04:04.993Z,18.69
2018-09-27T11:06:34.088Z,18.88
2018-09-27T11:09:03.329Z,19.09
2018-09-27T11:11:34.201Z,19.07
2018-09-27T11:14:03.269Z,19.75
2018-09-27T11:16:32.398Z,19.72
2018-09-27T11:19:01.917Z,19.04
2018-09-27T11:21:31.007Z,19.22
2018-09-27T11:24:00.074Z,19.49
2018-09-27T11:26:29.516Z,19.27
2018-09-27T11:29:03.646Z,19.41
2018-09-27T11:33:42.522Z,19.78
2018-09-27T11:36:12.047Z,19.87
2018-09-27T11:38:41.181Z,19.94
2018-09-27T11:41:10.548Z,19.15
2018-09-27T11:43:39.664Z,19.48
2018-09-27T11:46:08.776Z,19.53
2018-09-27T11:48:38.217Z,19.66
2018-09-27T11:51:07.492Z,19.60
2018-09-27T11:53:36.754Z,19.95
2018-09-27T11:56:06.253Z,19.15
2018-09-27T11:58:35.389Z,19.77
2018-09-27T12:01:04.535Z,19.33
2018-09-27T12:03:33.942Z,19.86
2018-09-27T12:06:03.031Z,19.42
2018-09-27T12:08:32.097Z,19.15
2018-09-27T12:11:01.543Z,19.95
2018-09-27T12:13:30.688Z,19.51
2018-09-27T12:16:00.426Z,19.38
2018-09-27T12:18:29.657Z,19.72
2018-09-27T12:20:58.730Z,20.18
2018-09-27T12:23:27.767Z,20.11
2018-09-27T12:25:57.162Z,19.85
2018-09-27T12:28:26.216Z,20.11
2018-09-27T12:33:24.996Z,20.21
2018-09-27T12:35:54.066Z,20.25
2018-09-27T12:38:23.132Z,19.47
2018-09-27T12:40:52.503Z,19.75
2018-09-27T12:43:21.533Z,19.62
2018-09-27T12:45:50.572Z,20.12
2018-09-27T12:48:19.978Z,19.48
2018-09-27T12:50:50.000Z,19.11
2018-09-27T12:53:19.058Z,19.54
2018-09-27T12:55:48.637Z,19.47
2018-09-27T12:58:17.708Z,19.41
2018-09-27T13:00:46.782Z,19.33
2018-09-27T13:03:17.547Z,19.61
2018-09-27T13:05:46.609Z,19.53
2018-09-27T13:08:16.275Z,19.82
2018-09-27T13:10:45.768Z,19.73
2018-09-27T13:13:14.898Z,19.26
2018-09-27T13:15:43.896Z,19.19
2018-09-27T13:18:13.115Z,19.24
2018-09-27T13:20:42.238Z,19.01
2018-09-27T13:23:11.611Z,19.14
2018-09-27T13:25:41.018Z,19.93
2018-09-27T13:28:10.035Z,19.03
2018-09-27T13:30:39.099Z,19.81
2018-09-27T13:33:09.358Z,19.84
2018-09-27T13:35:38.377Z,19.49
2018-09-27T13:38:07.454Z,19.57
2018-09-27T13:40:38.338Z,19.51
2018-09-27T13:43:07.572Z,19.18
2018-09-27T13:45:36.572Z,18.99
2018-09-27T13:48:05.774Z,19.26
2018-09-27T13:50:34.895Z,19.41
2018-09-27T13:53:03.985Z,19.42
2018-09-27T13:55:33.356Z,19.79
2018-09-27T13:58:02.430Z,19.24
2018-09-27T14:00:31.502Z,19.70
2018-09-27T14:03:00.908Z,19.61
2018-09-27T14:05:30.023Z,19.16
2018-09-27T14:07:59.028Z,18.98
2018-09-27T14:10:28.452Z,19.18
2018-09-27T14:12:57.538Z,19.36
2018-09-27T14:15:26.611Z,19.20
2018-09-27T14:17:55.956Z,20.16
2018-09-27T14:20:25.009Z,20.38
2018-09-27T14:22:54.062Z,20.24
2018-09-27T14:25:23.293Z,19.38
2018-09-27T14:27:52.305Z,19.25
2018-09-27T14:30:21.301Z,19.11
2018-09-27T14:32:50.912Z,19.36
2018-09-27T14:35:19.993Z,19.00
2018-09-27T14:37:49.065Z,19.87
2018-09-27T14:40:18.441Z,19.40
2018-09-27T14:42:47.527Z,19.18
2018-09-27T14:45:16.542Z,18.89
2018-09-27T14:47:46.015Z,19.37
2018-09-27T14:50:15.055Z,19.11
2018-09-27T14:52:44.187Z,19.22
2018-09-27T14:55:13.567Z,18.90
2018-09-27T14:57:42.632Z,18.73
2018-09-27T15:00:11.729Z,18.53
2018-09-27T15:02:40.850Z,18.46
2018-09-27T15:05:09.952Z,18.46
2018-09-27T15:07:39.149Z,18.41
2018-09-27T15:10:09.239Z,18.61
2018-09-27T15:12:38.349Z,18.45
2018-09-27T15:15:07.799Z,18.26
2018-09-27T15:17:38.006Z,18.21
2018-09-27T15:20:07.342Z,18.13
2018-09-27T15:22:36.524Z,18.14
2018-09-27T15:25:06.258Z,18.15
2018-09-27T15:27:35.417Z,18.16
2018-09-27T15:30:05.102Z,18.06
2018-09-27T15:32:34.568Z,18.02
2018-09-27T15:35:03.668Z,17.93
2018-09-27T15:37:32.766Z,17.98
2018-09-27T15:40:02.200Z,18.16
2018-09-27T15:42:31.334Z,18.23
2018-09-27T15:45:00.412Z,18.24
2018-09-27T15:47:29.782Z,18.28
2018-09-27T15:49:58.862Z,18.36
2018-09-27T15:52:27.944Z,18.41
2018-09-27T15:54:57.356Z,18.48
2018-09-27T15:57:26.435Z,18.39
2018-09-27T15:59:55.863Z,18.20
2018-09-27T16:02:25.219Z,18.01
2018-09-27T16:04:54.364Z,17.91
2018-09-27T16:07:23.425Z,17.80
2018-09-27T16:09:52.908Z,17.65
2018-09-27T16:12:21.997Z,17.53
2018-09-27T16:14:51.145Z,17.39
2018-09-27T16:17:20.357Z,17.24
2018-09-27T16:19:49.468Z,17.37
2018-09-27T16:22:18.602Z,17.30
2018-09-27T16:24:47.753Z,17.08
2018-09-27T16:27:16.856Z,16.94
2018-09-27T16:29:46.039Z,16.92
2018-09-27T16:32:15.436Z,16.65
2018-09-27T16:34:44.543Z,16.62
2018-09-27T16:37:13.670Z,16.65
2018-09-27T16:39:43.122Z,16.47
2018-09-27T16:42:12.804Z,16.47
2018-09-27T16:44:41.899Z,16.43
2018-09-27T16:47:11.225Z,16.41
2018-09-27T16:49:40.324Z,16.39
2018-09-27T16:52:09.458Z,16.31
2018-09-27T16:54:38.937Z,16.36
2018-09-27T16:57:09.117Z,16.27
2018-09-27T16:59:38.242Z,16.49
2018-09-27T17:02:07.875Z,16.39
2018-09-27T17:04:36.984Z,16.37
2018-09-27T17:07:06.107Z,16.45
2018-09-27T17:09:35.586Z,16.32
2018-09-27T17:12:04.709Z,16.39
2018-09-27T17:14:33.824Z,16.08
2018-09-27T17:17:03.416Z,15.88
2018-09-27T17:19:33.095Z,15.84
2018-09-27T17:22:02.194Z,15.73
2018-09-27T17:24:31.660Z,15.60
2018-09-27T17:27:00.754Z,15.62
2018-09-27T17:29:29.912Z,15.63
2018-09-27T17:31:59.147Z,15.63
2018-09-27T17:34:30.260Z,15.61
2018-09-27T17:36:59.347Z,15.71
2018-09-27T17:39:28.608Z,15.65
2018-09-27T17:41:57.708Z,15.71
2018-09-27T17:44:26.851Z,15.84
2018-09-27T17:46:56.282Z,15.81
2018-09-27T17:49:25.660Z,15.91
2018-09-27T17:51:54.777Z,16.05
2018-09-27T17:54:24.186Z,16.12
2018-09-27T17:56:53.305Z,16.20
2018-09-27T17:59:22.391Z,16.32
2018-09-27T18:01:51.771Z,16.38
2018-09-27T18:04:22.174Z,16.35
2018-09-27T18:06:51.324Z,16.26
2018-09-27T18:09:21.142Z,16.35
2018-09-27T18:11:50.323Z,16.50
2018-09-27T18:14:19.578Z,16.52
2018-09-27T18:16:50.187Z,16.32
2018-09-27T18:19:20.029Z,16.26
2018-09-27T18:21:49.205Z,15.87
2018-09-27T18:24:18.714Z,15.56
2018-09-27T18:26:48.178Z,15.72
2018-09-27T18:29:17.875Z,15.90
2018-09-27T18:31:47.303Z,15.57
2018-09-27T18:34:16.419Z,15.57
2018-09-27T18:36:46.559Z,15.44
2018-09-27T18:39:15.797Z,15.65
2018-09-27T18:41:44.884Z,15.47
2018-09-27T18:44:14.336Z,15.51
2018-09-27T18:46:43.978Z,15.42
2018-09-27T18:49:13.072Z,15.51
2018-09-27T18:51:42.169Z,15.53
2018-09-27T18:54:12.406Z,15.56
2018-09-27T18:56:41.482Z,15.48
2018-09-27T18:59:10.578Z,15.42
2018-09-27T19:01:40.681Z,15.34
2018-09-27T19:04:09.829Z,15.34
2018-09-27T19:06:39.144Z,15.33
2018-09-27T19:09:08.730Z,15.27
2018-09-27T19:11:37.833Z,15.25
2018-09-27T19:14:06.928Z,15.20
2018-09-27T19:16:36.479Z,15.25
2018-09-27T19:19:05.629Z,15.17
2018-09-27T19:21:34.729Z,15.15
2018-09-27T19:26:27.831Z,15.10
2018-09-27T19:28:56.906Z,15.03
2018-09-27T19:31:26.004Z,15.01
2018-09-27T19:33:55.432Z,14.88
2018-09-27T19:36:24.536Z,15.01
2018-09-27T19:38:53.617Z,15.04
2018-09-27T19:41:23.039Z,14.91
2018-09-27T19:43:52.164Z,14.89
2018-09-27T19:46:21.295Z,14.78
2018-09-27T19:48:50.745Z,14.70
2018-09-27T19:51:19.839Z,14.25
2018-09-27T19:53:48.917Z,14.27
2018-09-27T19:56:18.291Z,13.79
2018-09-27T19:58:47.920Z,13.53
2018-09-27T20:01:17.170Z,13.49
2018-09-27T20:03:46.389Z,13.66
2018-09-27T20:06:15.476Z,13.68
2018-09-27T20:08:44.588Z,13.82
2018-09-27T20:11:13.849Z,13.89
2018-09-27T20:13:42.923Z,13.86
2018-09-27T20:16:12.051Z,14.01
2018-09-27T20:18:41.788Z,14.12
2018-09-27T20:21:10.881Z,14.03
2018-09-27T20:23:39.985Z,13.68
2018-09-27T20:26:09.073Z,13.71
2018-09-27T20:28:38.228Z,13.59
2018-09-27T20:31:07.525Z,13.54
2018-09-27T20:33:36.796Z,13.71
2018-09-27T20:36:05.909Z,13.67
2018-09-27T20:38:34.970Z,13.51
2018-09-27T20:41:04.392Z,13.30
2018-09-27T20:43:34.383Z,13.30
2018-09-27T20:46:03.473Z,13.40
2018-09-27T20:48:32.597Z,13.49
2018-09-27T20:51:01.869Z,13.32
2018-09-27T20:53:30.985Z,13.25
2018-09-27T20:56:00.409Z,13.16
2018-09-27T20:58:29.520Z,13.18
2018-09-27T21:00:58.600Z,13.32
2018-09-27T21:03:27.863Z,13.24
2018-09-27T21:05:57.089Z,13.29
2018-09-27T21:08:26.182Z,13.24
2018-09-27T21:10:55.583Z,13.29
2018-09-27T21:13:24.659Z,13.21
2018-09-27T21:15:53.757Z,13.04
2018-09-27T21:18:23.134Z,13.04
2018-09-27T21:20:52.240Z,12.97
2018-09-27T21:23:21.330Z,13.00
2018-09-27T21:25:50.732Z,12.97
2018-09-27T21:28:19.965Z,12.85
2018-09-27T21:30:49.182Z,12.75
2018-09-27T21:33:18.274Z,12.83
2018-09-27T21:35:47.343Z,12.77
2018-09-27T21:38:16.704Z,12.83
2018-09-27T21:40:46.155Z,12.98
2018-09-27T21:43:15.269Z,13.17
2018-09-27T21:45:44.354Z,13.05
2018-09-27T21:48:13.570Z,13.21
2018-09-27T21:50:42.656Z,13.14
2018-09-27T21:53:11.735Z,13.26
2018-09-27T21:55:41.154Z,13.24
2018-09-27T21:58:10.225Z,13.17
2018-09-27T22:00:39.325Z,13.22
2018-09-27T22:03:08.766Z,13.25
2018-09-27T22:05:37.873Z,13.21
2018-09-27T22:08:06.980Z,13.14
2018-09-27T22:10:36.362Z,13.03
2018-09-27T22:13:05.389Z,12.95
2018-09-27T22:15:34.433Z,12.65
2018-09-27T22:18:03.676Z,12.50
2018-09-27T22:20:32.706Z,11.92
2018-09-27T22:23:01.745Z,11.77
2018-09-27T22:25:31.899Z,11.86
2018-09-27T22:28:01.003Z,11.46
2018-09-27T22:30:30.123Z,11.69
2018-09-27T22:32:59.316Z,11.96
2018-09-27T22:35:28.348Z,12.05
2018-09-27T22:37:57.381Z,11.95
2018-09-27T22:40:26.746Z,11.57
2018-09-27T22:42:55.806Z,11.49
2018-09-27T22:45:24.819Z,11.65
2018-09-27T22:47:54.013Z,11.90
2018-09-27T22:50:23.078Z,11.64
2018-09-27T22:52:52.126Z,11.22
2018-09-27T22:55:21.485Z,11.35
2018-09-27T22:57:50.546Z,11.07
2018-09-27T23:00:19.605Z,11.20
2018-09-27T23:02:48.782Z,11.25
2018-09-27T23:05:17.843Z,11.38
2018-09-27T23:07:46.881Z,11.63
2018-09-27T23:10:16.295Z,11.64
2018-09-27T23:12:45.354Z,11.62
2018-09-27T23:15:14.396Z,11.72
2018-09-27T23:17:43.754Z,11.77
2018-09-27T23:20:12.920Z,11.59
2018-09-27T23:22:41.941Z,11.43
2018-09-27T23:25:11.125Z,11.29
2018-09-27T23:27:40.159Z,10.85
2018-09-27T23:30:09.188Z,10.62
2018-09-27T23:32:38.376Z,10.69
2018-09-27T23:35:07.597Z,10.62
2018-09-27T23:37:36.702Z,10.64
2018-09-27T23:40:06.173Z,10.68
2018-09-27T23:42:35.207Z,10.79
2018-09-27T23:45:04.298Z,10.79
2018-09-27T23:47:33.498Z,10.88
2018-09-27T23:50:02.542Z,11.01
2018-09-27T23:52:31.598Z,11.10
2018-09-27T23:55:00.998Z,10.69
2018-09-27T23:57:30.022Z,10.74
2018-09-27T23:59:59.097Z,10.78
